Time;durP1;ratioP1;P1;durP2;ratioP2;P2;SDS_P1;SDS_P2;PMS_P1;PMS_P2;Temp;Humidity;BMP_temperature;BMP_pressure;BME280_temperature;BME280_humidity;BME280_pressure;Samples;Min_cycle;Max_cycle;Signal;HPM_P1;HPM_P2
2021/08/31 00:00:35;;;;;;;21.80;12.75;;;;;;;15.53;81.77;102540.06;4900586;29;20149;-89
2021/08/31 00:03:02;;;;;;;25.42;12.32;;;;;;;15.44;82.20;102546.72;4925915;29;20017;-90
2021/08/31 00:05:29;;;;;;;22.08;12.52;;;;;;;15.41;82.15;102541.53;4896368;29;20040;-87
2021/08/31 00:07:55;;;;;;;23.95;13.05;;;;;;;15.58;81.62;102545.19;4880627;29;20020;-88
2021/08/31 00:10:21;;;;;;;22.48;12.63;;;;;;;15.45;82.07;102536.94;4899293;29;20076;-89
2021/08/31 00:12:47;;;;;;;24.40;12.93;;;;;;;15.52;81.65;102546.34;4895900;29;20028;-89
2021/08/31 00:15:12;;;;;;;22.85;12.18;;;;;;;15.59;81.14;102544.28;4877825;29;20091;-90
2021/08/31 00:17:38;;;;;;;25.77;12.35;;;;;;;15.49;81.81;102549.16;4863922;29;20036;-91
2021/08/31 00:20:07;;;;;;;21.63;11.48;;;;;;;15.36;81.96;102542.69;4893120;29;20028;-89
2021/08/31 00:22:35;;;;;;;24.70;12.10;;;;;;;15.41;82.14;102543.31;4893625;29;20096;-89
2021/08/31 00:25:01;;;;;;;23.60;12.02;;;;;;;15.41;82.07;102549.53;4878264;29;20472;-88
2021/08/31 00:27:27;;;;;;;19.30;10.95;;;;;;;15.31;82.25;102543.75;4862468;29;20028;-88
2021/08/31 00:29:52;;;;;;;20.88;11.40;;;;;;;15.52;81.73;102540.16;4893754;29;20083;-90
2021/08/31 00:32:18;;;;;;;23.83;11.82;;;;;;;15.44;81.64;102546.72;4878050;29;20104;-89
2021/08/31 00:34:45;;;;;;;21.52;11.52;;;;;;;15.38;82.28;102555.00;4888474;23;20486;-85
2021/08/31 00:37:11;;;;;;;27.88;11.20;;;;;;;15.51;81.51;102557.97;4874945;29;20504;-85
2021/08/31 00:39:39;;;;;;;20.30;11.60;;;;;;;15.49;81.68;102554.50;4877865;29;20041;-84
2021/08/31 00:42:06;;;;;;;19.25;11.43;;;;;;;15.44;81.93;102545.84;4896545;29;20541;-85
2021/08/31 00:44:33;;;;;;;21.38;11.48;;;;;;;15.52;81.79;102558.81;4916074;29;20064;-84
2021/08/31 00:47:03;;;;;;;21.60;10.65;;;;;;;15.63;81.16;102552.97;4896254;29;20469;-84
2021/08/31 00:49:32;;;;;;;19.70;11.32;;;;;;;15.46;82.23;102554.63;4909925;29;20083;-84
2021/08/31 00:51:59;;;;;;;18.52;10.77;;;;;;;15.61;81.49;102563.72;4912723;29;20020;-85
2021/08/31 00:54:46;;;;;;;19.17;10.57;;;;;;;15.54;81.80;102552.50;4894359;29;20584;-85
2021/08/31 00:57:11;;;;;;;20.48;10.80;;;;;;;15.48;82.30;102558.09;4893712;29;20040;-84
2021/08/31 00:59:37;;;;;;;23.77;11.18;;;;;;;15.52;81.90;102551.69;4859780;29;20144;-83
2021/08/31 01:02:02;;;;;;;17.38;11.25;;;;;;;15.52;81.96;102554.34;4859625;29;20029;-85
2021/08/31 01:04:29;;;;;;;20.00;10.52;;;;;;;15.51;81.73;102557.97;4890419;29;20032;-84
2021/08/31 01:06:55;;;;;;;20.60;10.77;;;;;;;15.60;81.68;102555.78;4907112;29;20119;-84
2021/08/31 01:09:20;;;;;;;17.98;10.43;;;;;;;15.59;81.54;102560.28;4905144;29;20020;-84
2021/08/31 01:11:47;;;;;;;18.30;10.32;;;;;;;15.43;81.93;102560.13;4872568;29;20036;-83
2021/08/31 01:14:13;;;;;;;19.48;10.00;;;;;;;15.44;81.89;102557.38;4888076;29;20538;-83
2021/08/31 01:16:39;;;;;;;20.23;10.25;;;;;;;15.48;81.40;102565.22;4904774;29;20247;-85
2021/08/31 01:19:05;;;;;;;23.50;10.48;;;;;;;15.51;81.22;102562.41;4887764;29;20546;-85
2021/08/31 01:21:30;;;;;;;18.00;10.07;;;;;;;15.38;81.59;102563.00;4904493;29;20072;-85
2021/08/31 01:23:56;;;;;;;19.48;10.10;;;;;;;15.28;81.73;102564.34;4887788;29;20029;-85
2021/08/31 01:26:22;;;;;;;20.13;10.07;;;;;;;15.31;81.67;102557.06;4904443;29;20107;-85
2021/08/31 01:28:47;;;;;;;17.40;10.32;;;;;;;15.20;82.18;102564.72;4872112;29;20456;-86
2021/08/31 01:31:13;;;;;;;22.83;10.93;;;;;;;15.20;82.33;102560.22;4904602;29;20040;-86
2021/08/31 01:33:39;;;;;;;19.58;10.73;;;;;;;15.26;81.64;102564.44;4872336;29;20383;-85
2021/08/31 01:36:21;;;;;;;25.50;11.10;;;;;;;15.11;82.50;102565.13;4903958;29;20048;-86
2021/08/31 01:38:56;;;;;;;21.40;10.73;;;;;;;15.22;82.07;102575.31;4872249;29;20525;-86
2021/08/31 01:41:25;;;;;;;21.20;9.95;;;;;;;15.17;81.85;102570.19;4903720;29;20059;-86
2021/08/31 01:43:51;;;;;;;17.33;9.38;;;;;;;15.17;81.70;102563.03;4904158;29;20411;-86
2021/08/31 01:46:16;;;;;;;21.45;10.93;;;;;;;15.22;81.52;102562.81;4904373;29;20075;-86
2021/08/31 01:48:43;;;;;;;20.85;10.82;;;;;;;15.17;81.59;102564.84;4904350;29;20032;-87
2021/08/31 01:51:09;;;;;;;18.67;10.95;;;;;;;15.15;81.59;102562.25;4903074;29;20032;-86
2021/08/31 01:53:34;;;;;;;22.20;11.13;;;;;;;15.01;82.45;102560.22;4871533;29;20108;-87
2021/08/31 01:56:01;;;;;;;20.90;11.00;;;;;;;15.10;82.07;102568.69;4904148;29;20532;-86
2021/08/31 01:58:32;;;;;;;19.58;11.15;;;;;;;15.00;82.90;102565.59;4887495;29;20506;-85
2021/08/31 02:01:00;;;;;;;21.15;10.65;;;;;;;14.93;82.73;102559.69;4886580;29;20369;-86
2021/08/31 02:03:26;;;;;;;20.08;11.07;;;;;;;15.06;82.74;102566.19;4887515;29;20032;-86
2021/08/31 02:05:51;;;;;;;19.33;11.07;;;;;;;15.00;82.85;102563.78;4870756;29;20484;-87
2021/08/31 02:08:17;;;;;;;21.50;10.60;;;;;;;15.05;82.85;102569.78;4904070;29;20048;-87
2021/08/31 02:10:42;;;;;;;21.50;11.07;;;;;;;14.99;82.88;102575.38;4887516;29;20369;-87
2021/08/31 02:13:08;;;;;;;20.55;9.88;;;;;;;15.22;81.96;102573.47;4887508;29;20154;-86
2021/08/31 02:15:34;;;;;;;18.75;10.35;;;;;;;15.11;82.55;102567.78;4886556;29;20078;-85
2021/08/31 02:17:59;;;;;;;20.75;10.50;;;;;;;15.11;82.41;102573.13;4903774;29;20480;-86
2021/08/31 02:20:25;;;;;;;24.63;11.45;;;;;;;15.11;82.68;102576.63;4887139;29;20031;-85
2021/08/31 02:22:50;;;;;;;22.25;11.25;;;;;;;15.02;83.47;102577.03;4903904;29;20127;-86
2021/08/31 02:25:16;;;;;;;22.63;9.55;;;;;;;15.02;83.27;102572.59;4889379;29;20029;-86
2021/08/31 02:27:44;;;;;;;20.15;10.25;;;;;;;15.08;83.21;102582.09;4891607;29;20028;-84
2021/08/31 02:30:10;;;;;;;26.20;11.07;;;;;;;15.18;82.87;102583.44;4892282;29;20450;-84
2021/08/31 02:32:36;;;;;;;20.60;10.60;;;;;;;15.10;83.11;102582.91;4909943;29;20044;-84
2021/08/31 02:35:03;;;;;;;18.08;9.90;;;;;;;15.12;83.28;102585.50;4893176;29;20085;-84
2021/08/31 02:37:28;;;;;;;18.30;10.00;;;;;;;15.14;83.00;102579.16;4894435;29;20056;-84
2021/08/31 02:39:54;;;;;;;21.27;10.50;;;;;;;15.07;83.55;102575.03;4905307;29;20041;-85
2021/08/31 02:42:19;;;;;;;17.67;9.07;;;;;;;15.25;82.73;102572.50;4888185;29;20056;-85
2021/08/31 02:44:44;;;;;;;19.35;9.68;;;;;;;15.11;83.46;102576.63;4903900;29;20028;-85
2021/08/31 02:47:10;;;;;;;26.63;10.10;;;;;;;15.17;83.02;102576.34;4871144;29;20084;-86
2021/08/31 02:49:36;;;;;;;19.50;9.95;;;;;;;15.28;82.98;102569.69;4903635;29;20032;-85
2021/08/31 02:52:03;;;;;;;19.58;9.48;;;;;;;15.37;82.00;102573.72;4888442;29;20025;-85
2021/08/31 02:54:31;;;;;;;21.55;9.93;;;;;;;15.26;82.11;102572.44;4890682;29;20111;-85
2021/08/31 02:56:56;;;;;;;16.98;9.75;;;;;;;15.23;82.65;102574.34;4907136;29;20057;-84
2021/08/31 02:59:21;;;;;;;18.02;9.35;;;;;;;15.24;82.58;102568.09;4907022;29;20025;-85
2021/08/31 03:04:21;;;;;;;16.50;8.93;;;;;;;15.25;82.38;102575.16;4907509;29;20116;-84
2021/08/31 03:06:47;;;;;;;22.50;9.93;;;;;;;15.35;82.03;102567.59;4909494;29;20491;-84
2021/08/31 03:09:12;;;;;;;19.73;8.93;;;;;;;15.19;82.65;102578.94;4916599;29;20035;-84
2021/08/31 03:11:39;;;;;;;16.88;9.02;;;;;;;15.28;82.57;102575.88;4904484;29;20033;-85
2021/08/31 03:14:06;;;;;;;17.98;8.68;;;;;;;15.25;82.37;102581.34;4919075;29;20056;-86
2021/08/31 03:16:31;;;;;;;21.25;8.93;;;;;;;15.28;82.09;102578.53;4866565;29;20033;-86
2021/08/31 03:18:57;;;;;;;19.73;8.48;;;;;;;15.45;81.75;102579.56;4908727;29;20028;-86
2021/08/31 03:21:22;;;;;;;18.63;8.90;;;;;;;15.38;81.82;102576.31;4906428;29;20039;-85
2021/08/31 03:23:47;;;;;;;17.60;8.73;;;;;;;15.39;81.68;102583.38;4906873;29;20032;-85
2021/08/31 03:26:13;;;;;;;15.93;8.70;;;;;;;15.28;81.84;102583.84;4889639;29;20029;-85
2021/08/31 03:28:38;;;;;;;18.80;8.75;;;;;;;15.31;81.66;102582.88;4874487;29;20033;-85
2021/08/31 03:31:04;;;;;;;17.52;8.85;;;;;;;15.22;82.12;102581.47;4874184;29;20377;-86
2021/08/31 03:33:31;;;;;;;19.40;8.35;;;;;;;15.22;81.83;102577.97;4874583;29;20141;-86
2021/08/31 03:35:56;;;;;;;18.52;8.98;;;;;;;15.19;81.92;102581.59;4889399;29;20048;-85
2021/08/31 03:38:22;;;;;;;17.73;8.88;;;;;;;15.24;81.56;102581.41;4874291;29;20041;-86
2021/08/31 03:40:49;;;;;;;18.35;8.60;;;;;;;15.17;81.79;102583.50;4858143;29;20076;-86
2021/08/31 03:43:14;;;;;;;21.58;8.88;;;;;;;15.03;82.53;102571.63;4889453;29;20170;-85
2021/08/31 03:45:40;;;;;;;18.38;8.70;;;;;;;15.10;82.32;102577.56;4905509;29;20040;-85
2021/08/31 03:48:05;;;;;;;17.48;8.65;;;;;;;15.18;81.82;102583.44;4890022;29;20025;-85
2021/08/31 03:50:31;;;;;;;21.92;8.93;;;;;;;15.06;82.27;102576.84;4873555;29;20324;-85
2021/08/31 03:52:56;;;;;;;18.63;8.23;;;;;;;15.12;82.12;102582.84;4873983;29;20025;-85
2021/08/31 03:55:22;;;;;;;19.55;9.15;;;;;;;15.11;82.30;102581.09;4906141;29;20072;-85
2021/08/31 03:57:47;;;;;;;20.02;9.07;;;;;;;15.14;82.54;102581.81;4906271;29;20038;-85
2021/08/31 04:00:16;;;;;;;17.13;8.75;;;;;;;15.16;81.97;102585.28;4904933;29;20037;-86
2021/08/31 04:02:42;;;;;;;17.52;8.30;;;;;;;15.12;82.16;102578.38;4905310;29;20080;-89
2021/08/31 04:05:08;;;;;;;19.35;9.25;;;;;;;15.14;82.07;102573.81;4888812;29;20041;-87
2021/08/31 04:07:33;;;;;;;17.75;9.15;;;;;;;15.03;82.59;102574.31;4906053;29;20032;-87
2021/08/31 04:09:59;;;;;;;19.20;8.27;;;;;;;15.05;82.53;102582.22;4870984;29;20220;-86
2021/08/31 04:12:24;;;;;;;17.00;8.30;;;;;;;15.10;82.04;102580.22;4886332;29;20029;-86
2021/08/31 04:14:50;;;;;;;17.17;8.07;;;;;;;15.01;82.50;102584.19;4873194;29;20048;-86
2021/08/31 04:17:15;;;;;;;18.35;8.48;;;;;;;15.15;81.99;102583.56;4905656;29;20395;-86
2021/08/31 04:19:42;;;;;;;17.05;8.13;;;;;;;15.10;81.97;102582.03;4888779;29;20051;-85
2021/08/31 04:22:09;;;;;;;19.50;8.90;;;;;;;15.04;82.42;102592.03;4905530;29;20028;-86
2021/08/31 04:24:36;;;;;;;18.52;8.45;;;;;;;15.00;82.45;102593.09;4905426;29;20029;-85
2021/08/31 04:27:03;;;;;;;18.33;8.10;;;;;;;14.91;82.74;102596.16;4873346;29;20067;-84
2021/08/31 04:29:28;;;;;;;15.55;8.25;;;;;;;14.98;82.36;102604.75;4873459;29;20029;-85
2021/08/31 04:31:55;;;;;;;18.15;9.63;;;;;;;15.05;81.90;102603.53;4888411;29;20036;-85
2021/08/31 04:36:45;;;;;;;17.97;7.93;;;;;;;14.90;82.57;102597.97;4892768;23;20060;-85
2021/08/31 04:39:11;;;;;;;17.67;7.40;;;;;;;15.09;81.73;102599.84;4885777;29;20318;-84
2021/08/31 04:41:38;;;;;;;17.33;8.00;;;;;;;15.06;81.71;102595.47;4885399;29;20039;-85
2021/08/31 04:44:04;;;;;;;18.90;8.05;;;;;;;15.05;81.67;102601.75;4886699;29;20496;-85
2021/08/31 04:46:31;;;;;;;18.40;8.00;;;;;;;15.02;81.71;102604.56;4854320;29;20463;-84
2021/08/31 04:48:56;;;;;;;17.77;8.40;;;;;;;15.11;81.34;102600.59;4887533;29;20063;-86
2021/08/31 04:51:22;;;;;;;21.45;8.38;;;;;;;15.05;80.97;102601.75;4888051;29;20032;-85
2021/08/31 04:53:47;;;;;;;19.73;8.77;;;;;;;15.01;81.34;102599.28;4888029;29;20059;-85
2021/08/31 04:56:13;;;;;;;21.80;8.93;;;;;;;14.92;81.88;102597.91;4904272;29;20055;-85
2021/08/31 04:58:38;;;;;;;21.77;8.20;;;;;;;14.97;81.72;102598.56;4904721;29;20036;-87
2021/08/31 05:01:06;;;;;;;16.60;8.38;;;;;;;15.06;81.41;102603.47;4904780;29;20109;-86
2021/08/31 05:03:36;;;;;;;17.77;8.73;;;;;;;14.92;81.88;102611.22;4887611;29;20039;-86
2021/08/31 05:06:01;;;;;;;18.75;8.30;;;;;;;15.03;81.93;102614.25;4904680;29;20040;-86
2021/08/31 05:08:27;;;;;;;19.48;8.75;;;;;;;15.07;81.55;102602.56;4887961;29;20060;-86
2021/08/31 05:10:52;;;;;;;21.48;7.82;;;;;;;15.18;80.93;102617.19;4902253;29;20020;-86
2021/08/31 05:13:18;;;;;;;11.52;7.95;;;;;;;15.05;81.17;102614.19;4882382;29;20028;-86
2021/08/31 05:15:44;;;;;;;21.05;8.75;;;;;;;15.08;81.23;102619.41;4865754;29;20029;-85
2021/08/31 05:18:09;;;;;;;17.67;7.82;;;;;;;15.16;80.79;102624.38;4882418;29;20035;-86
2021/08/31 05:20:35;;;;;;;17.08;7.85;;;;;;;15.04;81.29;102623.13;4881964;29;20028;-86
2021/08/31 05:23:00;;;;;;;21.40;8.15;;;;;;;15.21;80.32;102627.72;4882024;29;20032;-85
2021/08/31 05:25:27;;;;;;;23.00;8.35;;;;;;;15.07;81.10;102631.88;4882122;29;20048;-85
2021/08/31 05:27:55;;;;;;;15.25;7.45;;;;;;;15.20;80.61;102631.34;4882153;29;20037;-86
2021/08/31 05:30:20;;;;;;;24.33;7.90;;;;;;;15.18;80.71;102625.19;4898776;29;20489;-86
2021/08/31 05:32:46;;;;;;;19.05;7.90;;;;;;;15.26;80.07;102628.38;4882102;29;20037;-85
2021/08/31 05:35:11;;;;;;;19.88;7.65;;;;;;;15.27;80.45;102630.13;4881511;29;20065;-85
2021/08/31 05:37:38;;;;;;;15.93;7.72;;;;;;;15.32;80.16;102628.13;4881653;29;20047;-85
2021/08/31 05:40:05;;;;;;;14.25;7.00;;;;;;;15.26;80.58;102630.19;4881656;29;20495;-86
2021/08/31 05:42:31;;;;;;;17.15;8.15;;;;;;;15.47;79.93;102640.81;4881768;29;20096;-85
2021/08/31 05:44:56;;;;;;;13.70;7.03;;;;;;;15.40;80.22;102632.22;4898442;29;20024;-85
2021/08/31 05:47:22;;;;;;;16.92;7.10;;;;;;;15.63;79.27;102633.84;4881826;29;20049;-86
2021/08/31 05:49:47;;;;;;;15.40;7.15;;;;;;;15.68;78.98;102637.16;4881561;29;20115;-86
2021/08/31 05:52:12;;;;;;;14.05;7.03;;;;;;;15.81;78.36;102645.44;4881467;29;20032;-86
2021/08/31 05:54:38;;;;;;;20.42;7.10;;;;;;;15.76;78.44;102635.94;4898307;29;20036;-86
2021/08/31 05:57:09;;;;;;;18.88;6.82;;;;;;;15.55;79.05;102641.31;4898179;29;20032;-86
2021/08/31 05:59:39;;;;;;;18.40;6.28;;;;;;;15.60;78.86;102646.44;4882510;29;20028;-85
2021/08/31 06:02:08;;;;;;;14.05;5.97;;;;;;;15.88;78.53;102654.03;4898192;29;20025;-85
2021/08/31 06:04:35;;;;;;;17.88;6.15;;;;;;;15.98;77.72;102650.97;4897999;29;20087;-85
2021/08/31 06:07:02;;;;;;;13.10;6.22;;;;;;;15.74;78.27;102648.47;4898013;29;20037;-85
2021/08/31 06:09:28;;;;;;;11.82;5.78;;;;;;;15.87;78.37;102656.78;4897980;29;20044;-85
2021/08/31 06:11:55;;;;;;;16.13;6.38;;;;;;;15.87;77.89;102654.09;4881228;29;20033;-86
2021/08/31 06:14:21;;;;;;;13.38;5.93;;;;;;;15.99;77.64;102658.91;4897984;29;20059;-85
2021/08/31 06:16:46;;;;;;;12.43;5.90;;;;;;;15.98;78.02;102657.19;4865660;29;20028;-85
2021/08/31 06:19:12;;;;;;;15.05;6.00;;;;;;;16.23;77.31;102665.81;4897810;29;20025;-85
2021/08/31 06:21:37;;;;;;;12.05;5.93;;;;;;;16.26;77.29;102658.53;4897900;29;20028;-84
2021/08/31 06:24:03;;;;;;;14.57;6.13;;;;;;;16.28;77.18;102659.31;4870672;29;20028;-86
2021/08/31 06:26:28;;;;;;;13.70;5.10;;;;;;;16.43;76.49;102660.38;4862141;29;20033;-85
2021/08/31 06:28:54;;;;;;;16.58;5.95;;;;;;;16.51;76.32;102665.34;4879686;29;20037;-86
2021/08/31 06:31:19;;;;;;;15.48;6.07;;;;;;;16.40;76.55;102665.88;4879195;29;20043;-86
2021/08/31 06:33:46;;;;;;;14.43;5.60;;;;;;;16.45;76.74;102673.66;4862555;29;20056;-86
2021/08/31 06:36:13;;;;;;;17.90;6.32;;;;;;;16.75;75.56;102672.19;4879103;29;20108;-86
2021/08/31 06:38:38;;;;;;;14.20;6.00;;;;;;;16.77;75.77;102681.00;4879067;29;20041;-85
2021/08/31 06:41:06;;;;;;;11.98;5.88;;;;;;;16.66;76.09;102674.38;4879020;29;20039;-85
2021/08/31 06:43:31;;;;;;;12.55;5.75;;;;;;;16.88;75.49;102675.13;4878753;29;20036;-85
2021/08/31 06:45:57;;;;;;;14.82;5.70;;;;;;;16.74;76.15;102671.31;4862266;29;20033;-86
2021/08/31 06:48:22;;;;;;;13.52;6.18;;;;;;;16.82;76.10;102681.63;4862228;29;20029;-86
2021/08/31 06:50:47;;;;;;;17.15;5.75;;;;;;;16.98;75.63;102681.72;4862440;29;20033;-87
2021/08/31 06:53:13;;;;;;;19.17;5.90;;;;;;;17.09;75.55;102675.84;4846968;29;20044;-85
2021/08/31 06:55:41;;;;;;;16.20;5.85;;;;;;;17.05;75.75;102679.59;4878928;29;20033;-85
2021/08/31 06:58:06;;;;;;;19.27;6.20;;;;;;;17.13;75.79;102679.25;4883502;29;20036;-85
2021/08/31 07:00:32;;;;;;;12.70;5.50;;;;;;;17.14;76.09;102683.63;4881155;29;20033;-85
2021/08/31 07:02:57;;;;;;;16.98;5.68;;;;;;;16.84;77.42;102684.22;4880800;29;20413;-85
2021/08/31 07:05:23;;;;;;;13.95;5.90;;;;;;;16.98;76.96;102683.50;4897694;29;20033;-85
2021/08/31 07:07:48;;;;;;;11.68;5.55;;;;;;;17.11;76.61;102682.00;4897400;29;20135;-85
2021/08/31 07:10:13;;;;;;;13.43;6.05;;;;;;;17.31;75.60;102675.59;4897339;29;20091;-84
2021/08/31 07:12:39;;;;;;;13.48;5.78;;;;;;;17.25;75.28;102675.94;4897324;29;20036;-84
2021/08/31 07:15:05;;;;;;;13.73;5.82;;;;;;;17.24;75.10;102684.88;4897508;29;20033;-84
2021/08/31 07:17:30;;;;;;;15.40;5.75;;;;;;;17.49;74.77;102685.41;4897410;29;20091;-83
2021/08/31 07:19:56;;;;;;;14.23;5.47;;;;;;;17.62;74.24;102689.13;4897354;29;20032;-83
2021/08/31 07:22:21;;;;;;;15.63;5.38;;;;;;;17.54;75.41;102691.38;4897250;29;20028;-84
2021/08/31 07:24:47;;;;;;;16.33;5.20;;;;;;;17.37;74.31;102693.13;4897786;29;20025;-84
2021/08/31 07:27:12;;;;;;;19.48;5.60;;;;;;;17.98;73.19;102687.22;4897483;29;20077;-84
2021/08/31 07:29:38;;;;;;;16.52;5.85;;;;;;;18.36;72.17;102691.41;4897261;29;20025;-83
2021/08/31 07:32:04;;;;;;;17.95;6.18;;;;;;;18.37;72.27;102694.94;4897341;29;20510;-82
2021/08/31 07:34:29;;;;;;;17.23;5.80;;;;;;;17.99;72.59;102698.78;4897737;29;20646;-85
2021/08/31 07:36:55;;;;;;;12.05;5.25;;;;;;;18.12;72.95;102696.34;4897937;29;20170;-84
2021/08/31 07:39:21;;;;;;;15.45;6.07;;;;;;;18.39;71.90;102696.56;4882803;29;20083;-85
2021/08/31 07:41:46;;;;;;;17.23;5.85;;;;;;;18.16;72.39;102701.44;4903529;29;20417;-85
2021/08/31 07:44:12;;;;;;;12.13;5.28;;;;;;;18.21;72.78;102700.28;4904342;29;20032;-86
2021/08/31 07:46:38;;;;;;;12.68;5.18;;;;;;;17.99;72.54;102709.50;4902137;29;20392;-83
2021/08/31 07:49:04;;;;;;;14.20;6.32;;;;;;;18.43;71.84;102702.63;4900397;29;20032;-83
2021/08/31 07:51:29;;;;;;;15.18;5.57;;;;;;;18.71;71.07;102708.19;4900054;29;20035;-82
2021/08/31 07:53:55;;;;;;;14.38;5.90;;;;;;;18.60;71.02;102708.81;4898946;29;20036;-84
2021/08/31 07:56:20;;;;;;;17.17;5.80;;;;;;;19.13;69.95;102713.81;4900490;29;20029;-81
2021/08/31 07:58:45;;;;;;;14.88;5.75;;;;;;;18.90;68.47;102705.31;4899661;29;20092;-82
2021/08/31 08:01:11;;;;;;;12.27;6.15;;;;;;;19.59;67.12;102718.22;4900298;29;20037;-83
2021/08/31 08:03:36;;;;;;;16.45;5.38;;;;;;;19.98;66.46;102710.41;4884061;29;20052;-85
2021/08/31 08:06:02;;;;;;;12.88;5.18;;;;;;;19.83;66.17;102719.44;4901419;29;20032;-86
2021/08/31 08:08:27;;;;;;;16.85;5.55;;;;;;;19.65;66.81;102717.81;4881032;29;20033;-86
2021/08/31 08:10:59;;;;;;;15.50;5.45;;;;;;;19.52;66.56;102717.72;4883551;29;20032;-84
2021/08/31 08:13:24;;;;;;;14.05;5.07;;;;;;;19.61;66.70;102724.31;4885682;29;20033;-84
2021/08/31 08:15:49;;;;;;;15.75;5.82;;;;;;;19.67;66.32;102721.25;4885906;29;20033;-85
2021/08/31 08:18:15;;;;;;;10.88;5.32;;;;;;;19.75;65.66;102720.78;4886670;29;20029;-84
2021/08/31 08:20:43;;;;;;;13.82;5.32;;;;;;;19.36;66.81;102716.94;4889164;29;20037;-84
2021/08/31 08:23:08;;;;;;;12.38;4.97;;;;;;;19.60;66.75;102717.25;4882813;29;20036;-84
2021/08/31 08:25:34;;;;;;;12.10;5.28;;;;;;;19.54;66.98;102721.19;4881639;29;20029;-84
2021/08/31 08:27:59;;;;;;;14.98;5.18;;;;;;;18.78;69.27;102731.88;4886861;29;20025;-86
2021/08/31 08:30:25;;;;;;;15.05;5.00;;;;;;;18.90;69.42;102735.66;4900364;29;20043;-84
2021/08/31 08:32:50;;;;;;;13.50;5.70;;;;;;;18.71;69.11;102740.34;4901319;29;20357;-81
2021/08/31 08:35:16;;;;;;;10.05;4.75;;;;;;;18.71;69.07;102735.88;4887139;23;20079;-88
2021/08/31 08:37:41;;;;;;;10.95;5.20;;;;;;;19.03;68.42;102734.94;4864696;29;20513;-88
2021/08/31 08:40:07;;;;;;;15.10;5.30;;;;;;;19.17;67.45;102740.34;4880212;29;20036;-85
2021/08/31 08:42:32;;;;;;;15.10;5.38;;;;;;;19.42;65.92;102741.56;4882456;29;20104;-86
2021/08/31 08:44:58;;;;;;;11.82;4.60;;;;;;;19.60;64.11;102736.03;4885634;29;20045;-86
2021/08/31 08:47:23;;;;;;;13.10;4.78;;;;;;;19.45;65.02;102737.84;4893384;29;20033;-84
2021/08/31 08:49:49;;;;;;;12.38;4.93;;;;;;;19.37;64.50;102741.00;4892996;29;20032;-84
2021/08/31 08:52:15;;;;;;;12.07;4.65;;;;;;;19.40;63.83;102747.97;4892520;29;20029;-83
2021/08/31 08:54:41;;;;;;;13.35;4.85;;;;;;;19.36;64.04;102751.81;4884664;29;20119;-84
2021/08/31 08:57:06;;;;;;;13.57;4.90;;;;;;;19.50;64.01;102748.28;4864018;29;20046;-85
2021/08/31 08:59:32;;;;;;;13.25;5.20;;;;;;;19.67;63.74;102753.47;4881403;29;20057;-84
2021/08/31 09:01:57;;;;;;;14.00;4.72;;;;;;;19.61;63.63;102761.88;4881196;29;20033;-85
2021/08/31 09:04:43;;;;;;;14.75;4.93;;;;;;;19.67;63.53;102766.03;4881220;29;20100;-86
2021/08/31 09:07:38;;;;;;;14.05;5.55;;;;;;;19.65;64.12;102765.25;4879501;29;20021;-85
2021/08/31 09:10:20;;;;;;;13.32;5.05;;;;;;;19.37;64.50;102759.75;4899884;29;20071;-85
2021/08/31 09:12:50;;;;;;;14.57;4.80;;;;;;;19.89;63.26;102756.66;4916846;29;20098;-85
2021/08/31 09:15:25;;;;;;;13.20;4.63;;;;;;;20.07;62.94;102759.16;4916656;29;20036;-84
2021/08/31 09:18:11;;;;;;;13.45;4.53;;;;;;;20.31;61.82;102759.41;4909352;29;20112;-86
2021/08/31 09:20:46;;;;;;;15.77;4.85;;;;;;;20.17;62.37;102760.28;4898975;29;20072;-84
2021/08/31 09:23:32;;;;;;;14.00;4.72;;;;;;;19.94;63.87;102767.94;4898527;29;20412;-84
2021/08/31 09:26:07;;;;;;;14.35;5.00;;;;;;;20.66;61.90;102777.72;4881702;29;20476;-84
2021/08/31 09:28:37;;;;;;;15.32;4.93;;;;;;;20.90;60.92;102773.50;4899056;29;20432;-84
2021/08/31 09:31:07;;;;;;;13.48;4.97;;;;;;;20.48;62.42;102777.13;4898823;29;20069;-84
2021/08/31 09:33:34;;;;;;;18.23;4.93;;;;;;;21.05;59.89;102768.97;4898401;29;20052;-83
2021/08/31 09:36:22;;;;;;;12.85;4.90;;;;;;;21.48;59.35;102775.94;4881452;29;20448;-83
2021/08/31 09:39:01;;;;;;;15.43;4.85;;;;;;;21.26;59.84;102763.09;4881232;29;20055;-83
2021/08/31 09:41:39;;;;;;;12.82;4.57;;;;;;;21.72;57.61;102775.19;4898028;29;20028;-83
2021/08/31 09:44:12;;;;;;;12.02;4.68;;;;;;;21.43;57.15;102770.03;4898212;29;20131;-83
2021/08/31 09:46:47;;;;;;;12.85;4.72;;;;;;;21.03;58.20;102779.84;4898058;29;20032;-83
2021/08/31 09:49:26;;;;;;;14.75;4.75;;;;;;;20.64;58.13;102776.13;4897965;29;20159;-83
2021/08/31 09:51:59;;;;;;;11.48;5.10;;;;;;;20.61;57.32;102773.63;4866522;29;20029;-83
2021/08/31 09:54:25;;;;;;;10.48;4.53;;;;;;;20.76;57.27;102783.38;4897912;29;20033;-84
2021/08/31 09:56:51;;;;;;;12.57;4.70;;;;;;;20.78;57.39;102776.09;4898049;29;20028;-83
2021/08/31 09:59:16;;;;;;;14.63;4.75;;;;;;;20.73;56.78;102780.00;4898079;29;20024;-83
2021/08/31 10:01:42;;;;;;;11.18;5.15;;;;;;;20.26;57.74;102775.81;4880313;29;20033;-83
2021/08/31 10:04:07;;;;;;;8.95;4.55;;;;;;;19.99;58.62;102776.56;4897800;29;20036;-84
2021/08/31 10:06:33;;;;;;;11.23;4.53;;;;;;;20.87;56.66;102782.66;4881149;29;20085;-83
2021/08/31 10:09:02;;;;;;;7.93;4.35;;;;;;;20.77;57.31;102774.34;4881280;29;20028;-83
2021/08/31 10:11:27;;;;;;;14.30;5.05;;;;;;;20.28;59.68;102776.59;4865282;29;20028;-84
2021/08/31 10:13:53;;;;;;;15.52;4.97;;;;;;;20.41;59.71;102784.72;4865603;29;20036;-83
2021/08/31 10:16:18;;;;;;;10.48;4.78;;;;;;;20.04;60.96;102777.19;4881040;29;20425;-83
2021/08/31 10:18:43;;;;;;;13.13;4.90;;;;;;;19.79;60.97;102767.09;4880979;29;20428;-84
2021/08/31 10:21:13;;;;;;;11.93;4.45;;;;;;;20.44;59.53;102782.78;4897843;29;20388;-83
2021/08/31 10:23:42;;;;;;;11.00;4.50;;;;;;;20.53;59.04;102783.06;4865639;29;20056;-84
2021/08/31 10:26:41;;;;;;;11.73;5.20;;;;;;;20.13;59.95;102780.25;4897722;29;20032;-84
2021/08/31 10:29:21;;;;;;;12.25;4.32;;;;;;;20.90;57.51;102785.16;4876999;29;20093;-83
2021/08/31 10:31:53;;;;;;;12.82;4.43;;;;;;;21.23;56.24;102793.75;4876919;29;20070;-84
2021/08/31 10:34:31;;;;;;;16.67;4.90;;;;;;;20.91;56.44;102792.25;4861075;29;20045;-84
2021/08/31 10:37:03;;;;;;;11.85;4.55;;;;;;;20.58;57.46;102796.22;4876743;29;20448;-83
2021/08/31 10:39:41;;;;;;;10.60;4.63;;;;;;;20.89;57.30;102807.63;4876369;29;20045;-84
2021/08/31 10:42:10;;;;;;;12.45;4.63;;;;;;;20.89;57.35;102804.94;4875353;29;20135;-86
2021/08/31 10:44:45;;;;;;;12.23;4.85;;;;;;;20.54;57.06;102802.72;4894994;29;20072;-84
2021/08/31 10:47:14;;;;;;;12.18;4.82;;;;;;;20.77;56.17;102801.22;4876997;29;20485;-84
2021/08/31 10:49:58;;;;;;;9.32;4.30;;;;;;;20.94;56.26;102801.09;4858116;29;20531;-84
2021/08/31 10:52:53;;;;;;;10.05;4.60;;;;;;;21.14;54.43;102803.31;4858139;29;20166;-83
2021/08/31 10:55:18;;;;;;;11.73;5.28;;;;;;;21.12;55.79;102799.88;4858755;29;20040;-83
2021/08/31 10:57:44;;;;;;;10.20;4.18;;;;;;;21.66;54.82;102808.78;4842588;29;20045;-84
2021/08/31 11:00:15;;;;;;;8.85;4.15;;;;;;;21.44;54.29;102809.41;4858543;29;20030;-85
2021/08/31 11:02:50;;;;;;;9.52;3.78;;;;;;;20.24;56.46;102811.81;4858079;29;20081;-84
2021/08/31 11:05:21;;;;;;;9.70;4.25;;;;;;;20.66;56.56;102811.84;4873619;29;20527;-84
2021/08/31 11:07:47;;;;;;;11.38;4.43;;;;;;;21.24;55.02;102819.69;4861883;29;20048;-85
2021/08/31 11:10:22;;;;;;;11.65;4.70;;;;;;;21.64;53.58;102823.31;4878483;29;20060;-86
2021/08/31 11:12:48;;;;;;;9.40;4.18;;;;;;;21.35;54.08;102821.69;4888691;29;20040;-86
2021/08/31 11:15:20;;;;;;;14.18;4.28;;;;;;;21.89;52.56;102819.81;4900933;29;20383;-84
2021/08/31 11:17:47;;;;;;;13.43;4.03;;;;;;;21.46;54.26;102825.44;4901045;29;20032;-84
2021/08/31 11:20:27;;;;;;;10.55;4.22;;;;;;;21.19;54.38;102815.59;4900596;29;20104;-84